Historyczne dane pomiarowe

Dodano dane terminowe – wersja testowa.

Dane z okresu 1951-2019

Wersja bazy: 1.34 [2019-03-16, lista zmian], aktualizacja planowana na 2019-04-15

Dane meteo z obszaru Polski uzyskane na podstawie danych udostępnionych przez Instytut Meteorologii i Gospodarki Wodnej – Państwowy Instytut Badawczy.

 

Wybierz Datę:    

       

TemperaturaWilgotnośćWiatrCiśnienieOpadyŚniegCzas trwania zjawisk
 Stacja t tx tn tng RH VA  wxwx mslp ppp RRR   cm mm wxwxwxwxwxwxwx
2012-10-10 6.2 9.6 3.8 3.0-- 7.3----- 4.1------------
2012-10-09 6.0 9.4 4.1 3.0-- 6.0----- 14.5------------
2012-10-08 7.4 10.6 3.4 3.0-- 7.3----- 5.5------------
2012-10-07 8.5 11.6 6.6 6.2-- 5.7----- 0.0------------
2012-10-06 10.7 13.6 7.6 6.5-- 6.7----- 19.1------------
2012-10-05 9.9 14.6 7.6 8.6-- 6.3----- 2.3------------
2012-10-04 12.3 16.2 8.6 9.0-- 3.7----- 4.0------------
2012-10-03 11.0 13.6 8.8 9.2-- 5.3----- 0.3------------
2012-10-02 11.5 13.2 9.6 10.4-- 6.7----- 0.0------------
2012-10-01 10.0 15.6 5.6 1.6-- 2.3----- 4.6------------
2012-09-30 11.5 14.6 9.2 7.7-- 5.3----- 0.0------------
2012-09-29 11.3 17.8 4.7 3.5-- 5.0----- 0.4------------
2012-09-28 11.5 15.2 8.6 7.4-- 6.3----- 1.9------------
2012-09-27 16.4 23.4 13.0 11.0-- 3.0----- 0.5------------
2012-09-26 12.8 19.2 6.7 5.8-- 4.0----- 0.0------------
2012-09-25 12.1 16.6 7.5 6.8-- 4.0----- 0.0------------
2012-09-24 10.2 15.0 7.3 6.4-- 5.7----- 0.0------------
2012-09-23 9.1 10.6 7.3 8.2-- 7.3----- 1.2------------
2012-09-22 8.2 11.4 5.0 3.2-- 4.0----- 16.4------------
2012-09-21 8.3 16.0 1.3 0.5-- 3.3----- 0.0------------
2012-09-20 9.7 13.0 7.1 7.4-- 5.3----- 0.0------------
2012-09-19 13.7 20.6 10.2 10.2-- 5.7----- 1.2------------
2012-09-18 14.6 21.6 7.9 5.6-- 1.0----- 0.0------------
2012-09-17 14.4 19.6 10.6 10.4-- 5.0----- 0.0------------
2012-09-16 13.1 17.0 9.5 9.2-- 7.3----- 0.0------------
2012-09-15 12.4 16.2 9.6 10.2-- 7.0----- 1.8------------
2012-09-14 11.7 16.6 7.6 8.8-- 5.3----- 0.3------------
2012-09-13 11.8 14.0 10.0 9.8-- 5.7----- 4.9------------
2012-09-12 15.8 21.3 12.6 12.8-- 5.3----- 6.7------------
2012-09-11 17.4 25.0 9.6 9.4-- 1.0----- 0.0------------
2012-09-10 13.0 20.8 5.3 2.6-- 0.3----- 0.0------------
2012-09-09 12.2 17.4 7.6 6.5-- 1.7----- 0.0------------
2012-09-08 12.8 16.6 8.6 8.6-- 5.7----- 0.7------------
2012-09-07 11.6 15.6 7.5 6.2-- 7.3----- 0.8------------
2012-09-06 12.4 16.6 9.2 8.3-- 4.3----- 0.8------------
2012-09-05 14.4 17.5 11.4 8.8-- 6.3----- 0.0------------
2012-09-04 14.7 20.5 8.8 8.2-- 4.7----- 0.0------------
2012-09-03 14.9 20.6 8.5 6.4-- 3.0----- 0.0------------
2012-09-02 14.6 19.0 9.5 8.2-- 5.0----- 0.0------------
2012-09-01 16.2 19.6 13.5 14.0-- 6.7----- 2.3------------
2012-08-31 16.3 21.8 9.8 7.2-- 4.3----- 0.0------------
2012-08-30 15.0 20.7 7.7 6.2-- 1.3----- 0.0------------
2012-08-29 14.0 19.5 7.5 6.4-- 5.0----- 0.0------------
2012-08-28 12.7 18.2 6.5 6.0-- 3.3----- 0.0------------
2012-08-27 15.1 18.4 13.0 12.0-- 1.3----- 3.1------------
2012-08-26 15.3 19.0 10.0 10.0-- 7.7----- 14.0------------
2012-08-25 15.9 19.7 12.2 12.1-- 6.7----- 0.0------------
2012-08-24 16.2 21.5 9.4 8.0-- 4.0----- 0.7------------
2012-08-23 16.5 21.8 11.5 10.5-- 2.0----- 0.0------------
2012-08-22 18.5 25.5 12.2 11.6-- 3.7----- 0.0------------
2012-08-21 18.8 24.5 14.6 14.5-- 3.0----- 0.0------------
2012-08-20 20.2 23.9 17.2 15.0-- 5.0----- 0.2------------
2012-08-19 20.5 26.2 14.8 15.4-- 4.3----- 0.2------------
2012-08-18 16.9 23.0 11.5 11.0-- 5.3----- 0.0------------
2012-08-17 16.1 20.9 10.8 10.0-- 5.7----- 0.0------------
2012-08-16 16.5 20.0 13.2 14.0-- 5.7----- 0.0------------
2012-08-15 14.9 17.4 12.3 13.1-- 7.7----- 0.0------------
2012-08-14 12.9 14.6 11.2 11.6-- 7.7----- 0.0------------
2012-08-13 13.6 16.7 10.2 10.6-- 6.3----- 5.2------------
2012-08-12 13.5 16.7 9.9 10.5-- 6.3----- 2.9------------
237.7 ms

 

Źródłem pochodzenia danych jest Instytut Meteorologii i Gospodarki Wodnej – Państwowy Instytut Badawczy. Dane Instytutu Meteorologii i Gospodarki Wodnej – Państwowego Instytutu Badawczego zostały przetworzone.

Dane źródłowe można odnaleźć na stronie https://dane.imgw.pl